I69

Clermont County Airport

Batavia, Ohio, USA
METAR KI69 170015Z AUTO 18004KT 10SM -RA BKN031 OVC038 26/26 A2991 RMK AO2 T02630257
Observed Flight Rules
Jul-17 @ 00:15 UTC (9 minutes ago) Visual Flight Rules
Wind Visibility Clouds Conditions
180° at 4 knots 10 miles
  • Broken at 3,100' AGL
  • Overcast at 3,800' AGL
  • Light Rain
Temperatures Readings
Current 26°C / 79°F
Dewpoint 26°C / 79°F
Humidity 100%
Altimeter 29.91" Hg
Pressure 1013 hPa
Elevation 255
METAR KI69 170015Z AUTO 18004KT 10SM -RA BKN031 OVC038 26/26 A2991 RMK AO2 T02630257
Observed Flight Rules
Jul-17 @ 00:15 UTC
(9 minutes ago)
VFR
Wind Visibility
180° at 4 knots 10 miles
Clouds
  • Broken at 3,100' AGL
  • Overcast at 3,800' AGL
Conditions
  • Light Rain
Temperature Dewpoint
26°C / 79°F 26°C / 79°F
Humidity Altimeter Pressure
100% 29.91" Hg 1013 hPa